createdAt,value
2018-11-04T00:00:03.215Z,93.30
2018-11-04T00:02:32.427Z,92.50
2018-11-04T00:05:00.836Z,92.90
2018-11-04T00:07:29.520Z,92.30
2018-11-04T00:09:58.530Z,92.40
2018-11-04T00:12:27.273Z,92.80
2018-11-04T00:14:56.389Z,92.80
2018-11-04T00:17:25.560Z,92.00
2018-11-04T00:19:54.657Z,92.20
2018-11-04T00:22:24.163Z,92.00
2018-11-04T00:24:53.359Z,91.50
2018-11-04T00:27:22.400Z,91.60
2018-11-04T00:29:51.696Z,91.60
2018-11-04T00:32:20.534Z,92.10
2018-11-04T00:34:49.203Z,92.90
2018-11-04T00:37:18.270Z,92.90
2018-11-04T00:39:47.487Z,93.20
2018-11-04T00:42:16.822Z,93.00
2018-11-04T00:44:45.843Z,92.70
2018-11-04T00:47:14.890Z,92.90
2018-11-04T00:49:43.647Z,93.10
2018-11-04T00:52:12.749Z,93.30
2018-11-04T00:54:41.108Z,93.70
2018-11-04T00:57:09.867Z,93.10
2018-11-04T00:59:38.848Z,93.10
2018-11-04T01:02:07.523Z,93.00
2018-11-04T01:04:36.183Z,92.50
2018-11-04T01:07:04.933Z,92.10
2018-11-04T01:09:33.297Z,93.00
2018-11-04T01:12:01.990Z,92.70
2018-11-04T01:14:30.677Z,92.00
2018-11-04T01:16:59.744Z,92.50
2018-11-04T01:19:28.742Z,92.10
2018-11-04T01:21:57.789Z,92.70
2018-11-04T01:24:26.232Z,92.90
2018-11-04T01:26:55.057Z,92.70
2018-11-04T01:29:23.729Z,92.50
2018-11-04T01:31:52.474Z,93.50
2018-11-04T01:34:21.176Z,93.30
2018-11-04T01:36:50.414Z,94.00
2018-11-04T01:39:19.490Z,93.80
2018-11-04T01:41:48.670Z,92.60
2018-11-04T01:44:17.341Z,93.40
2018-11-04T01:46:46.342Z,92.90
2018-11-04T01:49:15.426Z,93.50
2018-11-04T01:51:44.418Z,93.20
2018-11-04T01:54:13.400Z,93.70
2018-11-04T01:56:41.930Z,94.10
2018-11-04T01:59:10.965Z,95.00
2018-11-04T02:01:39.965Z,94.70
2018-11-04T02:04:08.790Z,95.00
2018-11-04T02:06:37.900Z,95.00
2018-11-04T02:09:09.033Z,94.30
2018-11-04T02:11:37.936Z,94.40
2018-11-04T02:14:06.432Z,94.40
2018-11-04T02:16:35.634Z,94.20
2018-11-04T02:19:04.060Z,94.80
2018-11-04T02:21:32.762Z,94.20
2018-11-04T02:24:01.477Z,94.00
2018-11-04T02:26:30.473Z,93.30
2018-11-04T02:28:59.158Z,93.40
2018-11-04T02:31:27.826Z,92.60
2018-11-04T02:33:56.502Z,93.40
2018-11-04T02:36:25.611Z,92.80
2018-11-04T02:38:54.915Z,93.00
2018-11-04T02:41:23.569Z,93.40
2018-11-04T02:43:52.265Z,93.20
2018-11-04T02:46:21.341Z,93.50
2018-11-04T02:48:50.335Z,94.80
2018-11-04T02:51:19.321Z,95.40
2018-11-04T02:53:48.000Z,95.90
2018-11-04T02:56:16.722Z,96.10
2018-11-04T02:58:46.028Z,96.10
2018-11-04T03:01:15.052Z,95.10
2018-11-04T03:03:43.954Z,95.70
2018-11-04T03:06:12.932Z,95.70
2018-11-04T03:08:41.597Z,96.30
2018-11-04T03:11:10.617Z,96.10
2018-11-04T03:13:39.639Z,96.10
2018-11-04T03:16:08.616Z,95.90
2018-11-04T03:18:37.682Z,96.90
2018-11-04T03:21:07.022Z,96.60
2018-11-04T03:23:36.200Z,97.70
2018-11-04T03:26:04.554Z,98.40
2018-11-04T03:28:34.011Z,97.40
2018-11-04T03:31:02.686Z,97.50
2018-11-04T03:33:31.668Z,97.10
2018-11-04T03:36:00.714Z,97.40
2018-11-04T03:38:29.401Z,97.70
2018-11-04T03:40:58.415Z,97.60
2018-11-04T03:43:27.392Z,97.60
2018-11-04T03:45:56.085Z,97.40
2018-11-04T03:48:25.213Z,97.40
2018-11-04T03:50:54.236Z,97.90
2018-11-04T03:53:23.105Z,98.40
2018-11-04T03:55:52.205Z,98.50
2018-11-04T03:58:20.931Z,97.90
2018-11-04T04:00:49.657Z,97.80
2018-11-04T04:03:18.693Z,97.80
2018-11-04T04:05:47.376Z,97.00
2018-11-04T04:08:16.358Z,97.50
2018-11-04T04:10:45.395Z,98.60
2018-11-04T04:13:14.414Z,97.80
2018-11-04T04:15:43.480Z,98.20
2018-11-04T04:18:12.128Z,98.70
2018-11-04T04:20:41.215Z,97.80
2018-11-04T04:23:10.204Z,98.60
2018-11-04T04:25:39.212Z,98.10
2018-11-04T04:28:07.894Z,99.00
2018-11-04T04:30:36.930Z,98.70
2018-11-04T04:33:06.041Z,99.80
2018-11-04T04:35:35.041Z,98.70
2018-11-04T04:38:04.027Z,99.00
2018-11-04T04:40:32.688Z,99.90
2018-11-04T04:43:01.341Z,99.90
2018-11-04T04:45:30.378Z,99.90
2018-11-04T04:47:59.401Z,99.90
2018-11-04T04:50:28.393Z,99.90
2018-11-04T04:52:57.549Z,99.90
2018-11-04T04:55:26.584Z,99.90
2018-11-04T04:57:55.257Z,99.90
2018-11-04T05:00:24.297Z,99.90
2018-11-04T05:02:53.286Z,99.60
2018-11-04T05:05:22.337Z,99.90
2018-11-04T05:07:51.035Z,99.90
2018-11-04T05:10:19.729Z,99.90
2018-11-04T05:12:48.946Z,99.80
2018-11-04T05:15:17.617Z,99.50
2018-11-04T05:17:46.601Z,99.90
2018-11-04T05:20:15.310Z,99.60
2018-11-04T05:22:43.974Z,99.90
2018-11-04T05:25:12.969Z,99.90
2018-11-04T05:27:41.952Z,99.90
2018-11-04T05:30:11.889Z,99.90
2018-11-04T05:32:40.565Z,99.80
2018-11-04T05:35:09.608Z,99.90
2018-11-04T05:37:38.621Z,99.90
2018-11-04T05:40:07.365Z,99.90
2018-11-04T05:42:36.386Z,99.90
2018-11-04T05:45:05.469Z,99.90
2018-11-04T05:47:34.177Z,99.90
2018-11-04T05:50:03.173Z,99.90
2018-11-04T05:52:31.913Z,99.90
2018-11-04T05:55:00.941Z,99.90
2018-11-04T05:57:29.948Z,99.90
2018-11-04T05:59:58.945Z,99.90
2018-11-04T06:02:27.923Z,99.90
2018-11-04T06:04:56.633Z,99.90
2018-11-04T06:07:25.626Z,99.90
2018-11-04T06:09:54.281Z,99.90
2018-11-04T06:12:23.289Z,99.90
2018-11-04T06:14:52.852Z,99.90
2018-11-04T06:17:21.850Z,99.90
2018-11-04T06:19:50.814Z,99.90
2018-11-04T06:22:19.621Z,99.90
2018-11-04T06:24:48.341Z,99.90
2018-11-04T06:27:17.048Z,99.90
2018-11-04T06:29:46.081Z,99.90
2018-11-04T06:32:15.059Z,99.90
2018-11-04T06:34:44.106Z,99.90
2018-11-04T06:37:13.115Z,99.90
2018-11-04T06:39:41.445Z,99.90
2018-11-04T06:42:10.499Z,99.90
2018-11-04T06:44:39.505Z,99.90
2018-11-04T06:47:08.312Z,99.90
2018-11-04T06:49:37.416Z,99.90
2018-11-04T06:52:07.137Z,99.90
2018-11-04T06:54:36.139Z,99.90
2018-11-04T06:57:04.472Z,99.90
2018-11-04T06:59:33.443Z,99.90
2018-11-04T07:02:02.467Z,99.90
2018-11-04T07:04:31.461Z,99.90
2018-11-04T07:07:00.172Z,99.90
2018-11-04T07:09:35.538Z,99.90
2018-11-04T07:12:04.225Z,99.70
2018-11-04T07:14:32.926Z,99.90
2018-11-04T07:17:01.260Z,99.90
2018-11-04T07:19:30.243Z,99.60
2018-11-04T07:21:58.918Z,99.90
2018-11-04T07:24:27.568Z,99.90
2018-11-04T07:26:59.510Z,99.90
2018-11-04T07:29:28.478Z,99.90
2018-11-04T07:31:57.564Z,99.90
2018-11-04T07:34:26.742Z,99.90
2018-11-04T07:36:55.586Z,99.90
2018-11-04T07:39:24.269Z,99.90
2018-11-04T07:41:53.517Z,99.90
2018-11-04T07:44:22.340Z,99.90
2018-11-04T07:46:52.011Z,99.90
2018-11-04T07:49:21.002Z,99.90
2018-11-04T07:51:50.146Z,99.90
2018-11-04T07:54:19.150Z,99.90
2018-11-04T07:56:48.306Z,99.90
2018-11-04T07:59:17.457Z,99.90
2018-11-04T08:01:46.691Z,99.90
2018-11-04T08:04:16.092Z,99.90
2018-11-04T08:06:44.823Z,99.90
2018-11-04T08:09:13.826Z,99.90
2018-11-04T08:11:42.861Z,99.90
2018-11-04T08:14:11.576Z,99.90
2018-11-04T08:16:40.590Z,99.90
2018-11-04T08:19:09.817Z,99.90
2018-11-04T08:21:38.163Z,99.90
2018-11-04T08:24:07.127Z,99.90
2018-11-04T08:26:35.505Z,99.90
2018-11-04T08:29:04.202Z,99.90
2018-11-04T08:31:33.224Z,99.90
2018-11-04T08:34:02.461Z,99.90
2018-11-04T08:36:31.489Z,99.90
2018-11-04T08:39:00.531Z,99.90
2018-11-04T08:41:29.611Z,99.90
2018-11-04T08:43:58.270Z,99.90
2018-11-04T08:46:27.290Z,99.90
2018-11-04T08:48:56.040Z,99.90
2018-11-04T08:51:25.113Z,99.90
2018-11-04T08:53:54.174Z,99.90
2018-11-04T08:56:23.186Z,99.90
2018-11-04T08:58:52.068Z,98.90
2018-11-04T09:01:21.082Z,97.50
2018-11-04T09:03:50.158Z,98.20
2018-11-04T09:06:19.152Z,97.50
2018-11-04T09:08:48.109Z,96.80
2018-11-04T09:11:17.156Z,96.40
2018-11-04T09:13:46.397Z,96.20
2018-11-04T09:16:16.470Z,96.10
2018-11-04T09:18:44.848Z,94.90
2018-11-04T09:21:13.582Z,94.00
2018-11-04T09:23:42.680Z,94.50
2018-11-04T09:26:11.569Z,95.40
2018-11-04T09:28:39.996Z,95.40
2018-11-04T09:31:08.793Z,94.00
2018-11-04T09:33:37.848Z,94.90
2018-11-04T09:36:06.842Z,94.10
2018-11-04T09:38:35.736Z,93.50
2018-11-04T09:41:06.132Z,93.00
2018-11-04T09:43:34.841Z,94.30
2018-11-04T09:46:03.567Z,93.90
2018-11-04T09:48:35.976Z,94.00
2018-11-04T09:51:07.434Z,93.20
2018-11-04T09:53:39.647Z,93.60
2018-11-04T09:56:10.225Z,94.90
2018-11-04T09:58:40.755Z,93.90
2018-11-04T10:01:10.550Z,93.90
2018-11-04T10:03:40.402Z,92.90
2018-11-04T10:06:09.859Z,92.00
2018-11-04T10:08:41.170Z,90.90
2018-11-04T10:11:11.752Z,91.10
2018-11-04T10:13:42.287Z,90.40
2018-11-04T10:16:11.846Z,90.00
2018-11-04T10:18:40.552Z,88.70
2018-11-04T10:21:10.243Z,86.80
2018-11-04T10:23:40.937Z,86.80
2018-11-04T10:26:11.794Z,90.60
2018-11-04T10:28:42.495Z,87.70
2018-11-04T10:31:13.839Z,85.90
2018-11-04T10:33:42.951Z,85.70
2018-11-04T10:36:11.819Z,88.90
2018-11-04T10:38:41.006Z,86.10
2018-11-04T10:41:10.567Z,90.00
2018-11-04T10:43:39.249Z,86.50
2018-11-04T10:46:08.284Z,83.60
2018-11-04T10:48:37.103Z,83.40
2018-11-04T10:51:05.808Z,84.80
2018-11-04T10:53:34.876Z,80.20
2018-11-04T10:56:03.889Z,81.00
2018-11-04T10:58:32.922Z,80.10
2018-11-04T11:01:09.360Z,79.80
2018-11-04T11:03:39.005Z,76.90
2018-11-04T11:06:07.453Z,79.20
2018-11-04T11:08:36.538Z,80.70
2018-11-04T11:11:05.498Z,84.10
2018-11-04T11:13:34.652Z,80.60
2018-11-04T11:16:03.350Z,75.40
2018-11-04T11:18:32.149Z,78.90
2018-11-04T11:21:01.172Z,74.20
2018-11-04T11:23:30.402Z,78.50
2018-11-04T11:25:59.440Z,81.40
2018-11-04T11:28:28.150Z,84.10
2018-11-04T11:30:57.145Z,79.40
2018-11-04T11:33:25.959Z,80.60
2018-11-04T11:35:54.959Z,79.60
2018-11-04T11:38:23.599Z,77.90
2018-11-04T11:40:54.387Z,78.90
2018-11-04T11:43:23.537Z,78.20
2018-11-04T11:45:52.229Z,80.00
2018-11-04T11:48:20.630Z,79.10
2018-11-04T11:50:49.624Z,78.50
2018-11-04T11:53:18.418Z,77.60
2018-11-04T11:55:47.523Z,78.30
2018-11-04T11:58:16.219Z,72.10
2018-11-04T12:00:44.925Z,72.00
2018-11-04T12:03:14.021Z,74.00
2018-11-04T12:05:42.781Z,70.90
2018-11-04T12:08:12.066Z,75.40
2018-11-04T12:10:40.807Z,74.40
2018-11-04T12:13:09.533Z,75.60
2018-11-04T12:15:38.584Z,76.00
2018-11-04T12:18:07.293Z,76.90
2018-11-04T12:20:36.029Z,75.50
2018-11-04T12:23:04.399Z,75.90
2018-11-04T12:25:33.815Z,78.00
2018-11-04T12:28:02.241Z,75.80
2018-11-04T12:30:31.275Z,74.60
2018-11-04T12:33:00.439Z,77.10
2018-11-04T12:35:29.170Z,80.60
2018-11-04T12:37:58.174Z,78.40
2018-11-04T12:40:27.737Z,75.50
2018-11-04T12:42:56.775Z,73.40
2018-11-04T12:45:25.462Z,69.50
2018-11-04T12:47:54.436Z,71.60
2018-11-04T12:50:23.438Z,76.00
2018-11-04T12:52:52.513Z,72.70
2018-11-04T12:55:21.286Z,74.40
2018-11-04T12:57:50.301Z,79.00
2018-11-04T13:00:19.330Z,80.40
2018-11-04T13:02:48.034Z,81.10
2018-11-04T13:05:16.781Z,79.90
2018-11-04T13:07:45.843Z,82.60
2018-11-04T13:10:15.128Z,84.40
2018-11-04T13:12:44.110Z,88.70
2018-11-04T13:15:14.062Z,90.80
2018-11-04T13:17:42.645Z,86.30
2018-11-04T13:20:11.029Z,87.00
2018-11-04T13:22:40.322Z,89.60
2018-11-04T13:25:09.521Z,88.50
2018-11-04T13:27:38.534Z,89.60
2018-11-04T13:30:08.761Z,89.80
2018-11-04T13:32:38.030Z,89.50
2018-11-04T13:35:06.874Z,88.30
2018-11-04T13:37:35.670Z,91.40
2018-11-04T13:40:05.337Z,91.40
2018-11-04T13:42:34.654Z,90.00
2018-11-04T13:45:03.378Z,86.50
2018-11-04T13:47:32.409Z,88.00
2018-11-04T13:50:01.097Z,88.40
2018-11-04T13:52:30.551Z,90.00
2018-11-04T13:54:59.610Z,90.40
2018-11-04T13:57:28.861Z,91.30
2018-11-04T13:59:57.865Z,91.70
2018-11-04T14:02:26.873Z,92.40
2018-11-04T14:04:55.892Z,91.90
2018-11-04T14:07:24.937Z,92.90
2018-11-04T14:09:53.623Z,92.50
2018-11-04T14:12:22.986Z,92.40
2018-11-04T14:14:51.845Z,93.30
2018-11-04T14:17:20.882Z,93.80
2018-11-04T14:19:49.924Z,93.10
2018-11-04T14:22:19.147Z,94.60
2018-11-04T14:24:47.889Z,95.40
2018-11-04T14:27:16.919Z,94.40
2018-11-04T14:29:45.645Z,95.10
2018-11-04T14:32:14.681Z,94.40
2018-11-04T14:34:43.363Z,95.90
2018-11-04T14:37:12.433Z,96.30
2018-11-04T14:39:41.151Z,96.90
2018-11-04T14:42:09.938Z,96.40
2018-11-04T14:44:38.931Z,97.50
2018-11-04T14:47:07.992Z,97.80
2018-11-04T14:49:36.821Z,99.30
2018-11-04T14:52:05.540Z,99.80
2018-11-04T14:54:34.226Z,99.90
2018-11-04T14:57:03.308Z,99.90
2018-11-04T14:59:31.691Z,99.90
2018-11-04T15:02:00.793Z,99.90
2018-11-04T15:04:29.905Z,99.90
2018-11-04T15:06:59.000Z,99.90
2018-11-04T15:09:27.845Z,99.90
2018-11-04T15:11:56.225Z,99.90
2018-11-04T15:14:25.308Z,99.90
2018-11-04T15:16:54.128Z,99.90
2018-11-04T15:19:22.907Z,99.90
2018-11-04T15:21:51.934Z,99.90
2018-11-04T15:24:20.652Z,99.90
2018-11-04T15:26:49.377Z,99.90
2018-11-04T15:29:17.782Z,99.90
2018-11-04T15:31:46.897Z,99.90
2018-11-04T15:34:16.020Z,99.90
2018-11-04T15:36:45.178Z,99.90
2018-11-04T15:39:17.093Z,99.90
2018-11-04T15:41:45.830Z,99.90
2018-11-04T15:44:14.875Z,99.90
2018-11-04T15:46:43.957Z,99.90
2018-11-04T15:49:13.037Z,99.90
2018-11-04T15:51:41.808Z,99.90
2018-11-04T15:54:10.846Z,99.90
2018-11-04T15:56:39.914Z,99.90
2018-11-04T15:59:08.629Z,99.90
2018-11-04T16:01:38.023Z,99.90
2018-11-04T16:04:06.884Z,99.90
2018-11-04T16:06:35.734Z,99.90
2018-11-04T16:09:05.766Z,99.90
2018-11-04T16:11:34.567Z,99.90
2018-11-04T16:14:03.250Z,99.90
2018-11-04T16:16:31.954Z,99.90
2018-11-04T16:19:00.359Z,99.90
2018-11-04T16:21:29.387Z,99.90
2018-11-04T16:23:58.475Z,99.90
2018-11-04T16:26:27.518Z,99.90
2018-11-04T16:28:56.229Z,99.90
2018-11-04T16:31:25.305Z,99.90
2018-11-04T16:33:54.353Z,99.90
2018-11-04T16:36:23.124Z,99.90
2018-11-04T16:38:52.220Z,99.90
2018-11-04T16:41:21.281Z,99.90
2018-11-04T16:43:51.073Z,99.90
2018-11-04T16:46:19.919Z,99.90
2018-11-04T16:48:48.674Z,99.90
2018-11-04T16:51:17.371Z,99.90
2018-11-04T16:53:46.182Z,99.90
2018-11-04T16:56:15.301Z,99.90
2018-11-04T16:58:44.476Z,99.90
2018-11-04T17:01:13.170Z,99.90
2018-11-04T17:03:42.197Z,99.90
2018-11-04T17:06:11.045Z,99.90
2018-11-04T17:08:40.499Z,99.90
2018-11-04T17:11:09.603Z,99.90
2018-11-04T17:13:38.146Z,99.90
2018-11-04T17:16:07.318Z,99.90
2018-11-04T17:18:36.521Z,99.90
2018-11-04T17:21:05.149Z,99.90
2018-11-04T17:23:33.541Z,99.90
2018-11-04T17:26:02.564Z,99.90
2018-11-04T17:28:31.244Z,99.90
2018-11-04T17:30:59.641Z,99.90
2018-11-04T17:33:28.709Z,99.90
2018-11-04T17:35:57.854Z,99.90
2018-11-04T17:38:26.760Z,99.90
2018-11-04T17:40:55.779Z,99.90
2018-11-04T17:43:24.125Z,99.90
2018-11-04T17:45:52.844Z,99.90
2018-11-04T17:48:21.553Z,99.90
2018-11-04T17:50:50.650Z,99.90
2018-11-04T17:53:19.705Z,99.90
2018-11-04T17:55:48.406Z,99.90
2018-11-04T17:58:16.900Z,99.90
2018-11-04T18:00:45.603Z,99.90
2018-11-04T18:03:14.640Z,99.90
2018-11-04T18:05:43.722Z,99.90
2018-11-04T18:08:12.748Z,99.90
2018-11-04T18:10:41.443Z,99.90
2018-11-04T18:13:10.512Z,99.90
2018-11-04T18:15:39.601Z,99.90
2018-11-04T18:18:08.785Z,99.90
2018-11-04T18:20:37.471Z,99.90
2018-11-04T18:23:06.525Z,99.90
2018-11-04T18:25:35.257Z,99.90
2018-11-04T18:28:03.997Z,99.90
2018-11-04T18:30:33.030Z,99.90
2018-11-04T18:33:02.306Z,99.90
2018-11-04T18:35:31.342Z,99.90
2018-11-04T18:38:00.330Z,99.90
2018-11-04T18:40:29.411Z,99.90
2018-11-04T18:42:58.465Z,99.90
2018-11-04T18:45:27.194Z,99.90
2018-11-04T18:47:55.597Z,99.90
2018-11-04T18:50:24.710Z,99.90
2018-11-04T18:52:53.968Z,99.90
2018-11-04T18:55:22.699Z,99.90
2018-11-04T18:57:51.740Z,99.90
2018-11-04T19:00:21.103Z,99.90
2018-11-04T19:02:50.263Z,99.90
2018-11-04T19:05:19.080Z,99.90
2018-11-04T19:07:48.325Z,99.90
2018-11-04T19:10:18.414Z,99.90
2018-11-04T19:12:47.127Z,99.90
2018-11-04T19:15:15.948Z,99.90
2018-11-04T19:17:44.756Z,99.90
2018-11-04T19:20:14.137Z,99.90
2018-11-04T19:22:43.698Z,99.90
2018-11-04T19:25:13.985Z,99.90
2018-11-04T19:27:43.205Z,99.90
2018-11-04T19:30:13.514Z,99.90
2018-11-04T19:32:42.895Z,99.90
2018-11-04T19:35:12.729Z,99.90
2018-11-04T19:37:42.016Z,99.90
2018-11-04T19:40:11.859Z,99.90
2018-11-04T19:42:41.010Z,99.90
2018-11-04T19:45:10.116Z,99.90
2018-11-04T19:47:39.437Z,99.90
2018-11-04T19:50:10.049Z,99.90
2018-11-04T19:52:39.122Z,99.90
2018-11-04T19:55:07.745Z,99.90
2018-11-04T19:57:36.474Z,99.90
2018-11-04T20:00:07.315Z,99.90
2018-11-04T20:02:36.420Z,99.90
2018-11-04T20:05:06.524Z,99.90
2018-11-04T20:07:35.398Z,99.90
2018-11-04T20:10:04.285Z,99.90
2018-11-04T20:12:38.826Z,99.90
2018-11-04T20:15:07.854Z,99.90
2018-11-04T20:17:36.587Z,99.90
2018-11-04T20:20:11.009Z,99.90
2018-11-04T20:22:40.587Z,99.90
2018-11-04T20:25:14.956Z,99.90
2018-11-04T20:27:44.298Z,99.90
2018-11-04T20:30:13.668Z,99.90
2018-11-04T20:32:48.026Z,99.90
2018-11-04T20:35:17.377Z,99.90
2018-11-04T20:37:46.080Z,99.90
2018-11-04T20:40:20.220Z,99.90
2018-11-04T20:42:49.253Z,99.90
2018-11-04T20:45:17.636Z,99.90
2018-11-04T20:47:52.117Z,99.90
2018-11-04T20:50:26.285Z,99.90
2018-11-04T20:52:55.641Z,99.90
2018-11-04T20:55:29.059Z,99.90
2018-11-04T20:57:58.395Z,99.90
2018-11-04T21:00:27.449Z,99.90
2018-11-04T21:02:56.734Z,99.90
2018-11-04T21:05:25.819Z,99.90
2018-11-04T21:07:55.256Z,99.90
2018-11-04T21:10:23.818Z,99.90
2018-11-04T21:12:52.513Z,99.90
2018-11-04T21:15:21.053Z,99.90
2018-11-04T21:17:50.224Z,99.90
2018-11-04T21:20:19.060Z,99.90
2018-11-04T21:22:48.048Z,99.90
2018-11-04T21:25:17.201Z,99.90
2018-11-04T21:27:46.115Z,99.90
2018-11-04T21:30:14.942Z,99.90
2018-11-04T21:32:44.099Z,99.90
2018-11-04T21:35:12.460Z,99.90
2018-11-04T21:37:41.221Z,99.90
2018-11-04T21:40:10.431Z,99.90
2018-11-04T21:42:39.500Z,99.90
2018-11-04T21:45:10.500Z,99.90
2018-11-04T21:47:39.638Z,99.90
2018-11-04T21:50:08.672Z,99.90
2018-11-04T21:52:37.089Z,99.90
2018-11-04T21:55:07.585Z,99.90
2018-11-04T21:57:36.790Z,99.90
2018-11-04T22:00:07.481Z,99.90
2018-11-04T22:02:36.036Z,99.90
2018-11-04T22:05:05.019Z,99.90
2018-11-04T22:07:34.355Z,99.90
2018-11-04T22:10:02.743Z,99.90
2018-11-04T22:12:31.771Z,99.90
2018-11-04T22:15:00.827Z,99.90
2018-11-04T22:17:29.850Z,99.90
2018-11-04T22:19:58.552Z,99.90
2018-11-04T22:22:27.605Z,99.90
2018-11-04T22:24:56.612Z,99.90
2018-11-04T22:27:25.335Z,99.90
2018-11-04T22:29:54.101Z,99.90
2018-11-04T22:32:23.122Z,99.90
2018-11-04T22:34:52.171Z,99.90
2018-11-04T22:37:21.449Z,99.90
2018-11-04T22:39:50.977Z,99.90
2018-11-04T22:42:20.067Z,99.90
2018-11-04T22:44:49.294Z,99.90
2018-11-04T22:47:18.387Z,99.90
2018-11-04T22:49:47.392Z,99.90
2018-11-04T22:52:16.429Z,99.90
2018-11-04T22:54:45.156Z,99.90
2018-11-04T22:57:14.145Z,99.90
2018-11-04T22:59:42.964Z,99.90
2018-11-04T23:02:12.052Z,99.90
2018-11-04T23:04:46.318Z,99.90
2018-11-04T23:07:15.366Z,99.90
2018-11-04T23:09:44.039Z,99.90
2018-11-04T23:12:13.114Z,99.90
2018-11-04T23:14:41.770Z,99.90
2018-11-04T23:17:10.918Z,99.90
2018-11-04T23:19:39.390Z,99.90
2018-11-04T23:22:08.425Z,99.90
2018-11-04T23:24:37.479Z,99.90
2018-11-04T23:27:05.854Z,99.90
2018-11-04T23:29:35.049Z,99.90
2018-11-04T23:32:03.797Z,99.90
2018-11-04T23:34:32.982Z,99.90
2018-11-04T23:37:02.148Z,99.90
2018-11-04T23:39:31.157Z,99.90
2018-11-04T23:41:59.861Z,99.90
2018-11-04T23:44:28.247Z,99.90
2018-11-04T23:46:56.941Z,99.90
2018-11-04T23:49:25.708Z,99.90
2018-11-04T23:51:54.768Z,99.90
2018-11-04T23:54:23.793Z,99.90
2018-11-04T23:56:52.853Z,99.90
2018-11-04T23:59:21.505Z,99.90
